sensor_id;sensor_type;location;lat;lon;timestamp;P1;durP1;ratioP1;P2;durP2;ratioP2
23670;SDS011;12012;51.998;7.614;2023-03-01T00:00:37;16.60;;;10.05;;
23670;SDS011;12012;51.998;7.614;2023-03-01T00:03:03;14.55;;;9.35;;
23670;SDS011;12012;51.998;7.614;2023-03-01T00:05:28;16.58;;;9.63;;
23670;SDS011;12012;51.998;7.614;2023-03-01T00:07:54;14.20;;;9.85;;
23670;SDS011;12012;51.998;7.614;2023-03-01T00:10:20;16.50;;;10.30;;
23670;SDS011;12012;51.998;7.614;2023-03-01T00:12:45;12.75;;;8.93;;
23670;SDS011;12012;51.998;7.614;2023-03-01T00:15:11;17.38;;;9.75;;
23670;SDS011;12012;51.998;7.614;2023-03-01T00:17:36;17.67;;;10.60;;
23670;SDS011;12012;51.998;7.614;2023-03-01T00:20:02;15.27;;;10.15;;
23670;SDS011;12012;51.998;7.614;2023-03-01T00:22:28;16.67;;;10.18;;
23670;SDS011;12012;51.998;7.614;2023-03-01T00:24:54;21.00;;;11.00;;
23670;SDS011;12012;51.998;7.614;2023-03-01T00:27:19;18.73;;;10.65;;
23670;SDS011;12012;51.998;7.614;2023-03-01T00:29:45;22.08;;;10.32;;
23670;SDS011;12012;51.998;7.614;2023-03-01T00:32:10;18.10;;;10.48;;
23670;SDS011;12012;51.998;7.614;2023-03-01T00:34:36;19.08;;;11.75;;
23670;SDS011;12012;51.998;7.614;2023-03-01T00:37:02;23.63;;;10.75;;
23670;SDS011;12012;51.998;7.614;2023-03-01T00:39:30;18.90;;;11.05;;
23670;SDS011;12012;51.998;7.614;2023-03-01T00:41:57;18.80;;;10.85;;
23670;SDS011;12012;51.998;7.614;2023-03-01T00:44:22;20.40;;;11.15;;
23670;SDS011;12012;51.998;7.614;2023-03-01T00:46:48;20.83;;;10.85;;
23670;SDS011;12012;51.998;7.614;2023-03-01T00:49:13;17.63;;;9.93;;
23670;SDS011;12012;51.998;7.614;2023-03-01T00:51:39;19.15;;;10.57;;
23670;SDS011;12012;51.998;7.614;2023-03-01T00:54:07;18.75;;;10.02;;
23670;SDS011;12012;51.998;7.614;2023-03-01T00:56:33;13.73;;;9.05;;
23670;SDS011;12012;51.998;7.614;2023-03-01T00:58:59;14.48;;;9.15;;
23670;SDS011;12012;51.998;7.614;2023-03-01T01:01:26;15.80;;;10.27;;
23670;SDS011;12012;51.998;7.614;2023-03-01T01:03:57;15.40;;;8.93;;
23670;SDS011;12012;51.998;7.614;2023-03-01T01:06:26;19.48;;;10.55;;
23670;SDS011;12012;51.998;7.614;2023-03-01T01:08:53;18.45;;;11.30;;
23670;SDS011;12012;51.998;7.614;2023-03-01T01:11:20;14.75;;;9.88;;
23670;SDS011;12012;51.998;7.614;2023-03-01T01:13:47;17.30;;;11.05;;
23670;SDS011;12012;51.998;7.614;2023-03-01T01:16:14;19.33;;;12.15;;
23670;SDS011;12012;51.998;7.614;2023-03-01T01:18:41;16.70;;;10.88;;
23670;SDS011;12012;51.998;7.614;2023-03-01T01:21:09;20.73;;;11.35;;
23670;SDS011;12012;51.998;7.614;2023-03-01T01:23:36;18.52;;;11.73;;
23670;SDS011;12012;51.998;7.614;2023-03-01T01:26:04;22.02;;;12.45;;
23670;SDS011;12012;51.998;7.614;2023-03-01T01:28:31;21.08;;;11.82;;
23670;SDS011;12012;51.998;7.614;2023-03-01T01:30:56;16.80;;;11.25;;
23670;SDS011;12012;51.998;7.614;2023-03-01T01:33:22;17.17;;;10.95;;
23670;SDS011;12012;51.998;7.614;2023-03-01T01:35:48;16.60;;;10.27;;
23670;SDS011;12012;51.998;7.614;2023-03-01T01:38:13;19.02;;;11.32;;
23670;SDS011;12012;51.998;7.614;2023-03-01T01:40:45;20.05;;;12.20;;
23670;SDS011;12012;51.998;7.614;2023-03-01T01:43:16;16.45;;;10.70;;
23670;SDS011;12012;51.998;7.614;2023-03-01T01:45:45;18.90;;;11.02;;
23670;SDS011;12012;51.998;7.614;2023-03-01T01:48:12;18.92;;;10.57;;
23670;SDS011;12012;51.998;7.614;2023-03-01T01:50:41;16.80;;;10.60;;
23670;SDS011;12012;51.998;7.614;2023-03-01T01:53:10;18.08;;;10.93;;
23670;SDS011;12012;51.998;7.614;2023-03-01T01:55:41;19.55;;;11.18;;
23670;SDS011;12012;51.998;7.614;2023-03-01T01:58:11;17.98;;;10.40;;
23670;SDS011;12012;51.998;7.614;2023-03-01T02:00:40;15.98;;;11.15;;
23670;SDS011;12012;51.998;7.614;2023-03-01T02:03:08;17.25;;;9.65;;
23670;SDS011;12012;51.998;7.614;2023-03-01T02:05:38;17.88;;;11.00;;
23670;SDS011;12012;51.998;7.614;2023-03-01T02:08:11;17.50;;;10.20;;
23670;SDS011;12012;51.998;7.614;2023-03-01T02:10:38;17.83;;;11.25;;
23670;SDS011;12012;51.998;7.614;2023-03-01T02:13:05;15.25;;;9.25;;
23670;SDS011;12012;51.998;7.614;2023-03-01T02:15:35;16.95;;;11.20;;
23670;SDS011;12012;51.998;7.614;2023-03-01T02:18:02;18.83;;;10.63;;
23670;SDS011;12012;51.998;7.614;2023-03-01T02:23:15;14.77;;;9.57;;
23670;SDS011;12012;51.998;7.614;2023-03-01T02:25:47;15.88;;;9.20;;
23670;SDS011;12012;51.998;7.614;2023-03-01T02:30:45;16.52;;;10.10;;
23670;SDS011;12012;51.998;7.614;2023-03-01T02:33:31;13.32;;;8.13;;
23670;SDS011;12012;51.998;7.614;2023-03-01T02:36:01;15.35;;;9.45;;
23670;SDS011;12012;51.998;7.614;2023-03-01T02:38:29;14.95;;;9.07;;
23670;SDS011;12012;51.998;7.614;2023-03-01T02:40:56;14.55;;;9.48;;
23670;SDS011;12012;51.998;7.614;2023-03-01T02:43:24;15.60;;;9.73;;
23670;SDS011;12012;51.998;7.614;2023-03-01T02:45:56;16.73;;;9.25;;
23670;SDS011;12012;51.998;7.614;2023-03-01T02:48:23;14.77;;;9.45;;
23670;SDS011;12012;51.998;7.614;2023-03-01T02:56:13;21.13;;;9.25;;
23670;SDS011;12012;51.998;7.614;2023-03-01T02:58:40;17.42;;;9.52;;
23670;SDS011;12012;51.998;7.614;2023-03-01T03:01:11;15.98;;;9.77;;
23670;SDS011;12012;51.998;7.614;2023-03-01T03:03:40;17.17;;;10.25;;
23670;SDS011;12012;51.998;7.614;2023-03-01T03:06:06;18.30;;;11.52;;
23670;SDS011;12012;51.998;7.614;2023-03-01T03:08:32;17.58;;;10.82;;
23670;SDS011;12012;51.998;7.614;2023-03-01T03:10:57;17.17;;;9.90;;
23670;SDS011;12012;51.998;7.614;2023-03-01T03:13:23;17.38;;;10.45;;
23670;SDS011;12012;51.998;7.614;2023-03-01T03:15:53;15.15;;;9.55;;
23670;SDS011;12012;51.998;7.614;2023-03-01T03:18:20;18.88;;;10.98;;
23670;SDS011;12012;51.998;7.614;2023-03-01T03:20:46;17.55;;;10.50;;
23670;SDS011;12012;51.998;7.614;2023-03-01T03:23:12;15.65;;;11.10;;
23670;SDS011;12012;51.998;7.614;2023-03-01T03:25:38;16.17;;;10.55;;
23670;SDS011;12012;51.998;7.614;2023-03-01T03:28:04;15.52;;;10.10;;
23670;SDS011;12012;51.998;7.614;2023-03-01T03:30:35;18.75;;;10.00;;
23670;SDS011;12012;51.998;7.614;2023-03-01T03:33:03;16.83;;;10.07;;
23670;SDS011;12012;51.998;7.614;2023-03-01T03:35:31;16.02;;;10.30;;
23670;SDS011;12012;51.998;7.614;2023-03-01T03:37:59;16.67;;;10.52;;
23670;SDS011;12012;51.998;7.614;2023-03-01T03:40:28;20.13;;;10.57;;
23670;SDS011;12012;51.998;7.614;2023-03-01T03:42:58;17.02;;;10.63;;
23670;SDS011;12012;51.998;7.614;2023-03-01T03:45:23;15.02;;;10.43;;
23670;SDS011;12012;51.998;7.614;2023-03-01T03:47:49;15.13;;;10.40;;
23670;SDS011;12012;51.998;7.614;2023-03-01T03:50:15;14.93;;;9.88;;
23670;SDS011;12012;51.998;7.614;2023-03-01T03:52:42;18.33;;;11.02;;
23670;SDS011;12012;51.998;7.614;2023-03-01T03:55:08;20.42;;;11.60;;
23670;SDS011;12012;51.998;7.614;2023-03-01T03:57:41;20.17;;;12.07;;
23670;SDS011;12012;51.998;7.614;2023-03-01T04:00:08;20.25;;;10.75;;
23670;SDS011;12012;51.998;7.614;2023-03-01T04:02:40;15.40;;;9.63;;
23670;SDS011;12012;51.998;7.614;2023-03-01T04:05:07;15.20;;;9.63;;
23670;SDS011;12012;51.998;7.614;2023-03-01T04:07:34;17.27;;;10.48;;
23670;SDS011;12012;51.998;7.614;2023-03-01T04:10:02;21.55;;;11.43;;
23670;SDS011;12012;51.998;7.614;2023-03-01T04:12:28;19.77;;;10.50;;
23670;SDS011;12012;51.998;7.614;2023-03-01T04:14:54;20.35;;;10.45;;
23670;SDS011;12012;51.998;7.614;2023-03-01T04:17:19;15.88;;;10.43;;
23670;SDS011;12012;51.998;7.614;2023-03-01T04:19:45;20.73;;;11.15;;
23670;SDS011;12012;51.998;7.614;2023-03-01T04:22:13;18.05;;;11.50;;
23670;SDS011;12012;51.998;7.614;2023-03-01T04:24:42;19.65;;;10.70;;
23670;SDS011;12012;51.998;7.614;2023-03-01T04:27:08;18.20;;;10.80;;
23670;SDS011;12012;51.998;7.614;2023-03-01T04:29:34;15.32;;;9.77;;
23670;SDS011;12012;51.998;7.614;2023-03-01T04:31:59;20.13;;;10.27;;
23670;SDS011;12012;51.998;7.614;2023-03-01T04:34:25;16.17;;;10.73;;
23670;SDS011;12012;51.998;7.614;2023-03-01T04:36:51;21.70;;;11.25;;
23670;SDS011;12012;51.998;7.614;2023-03-01T04:39:17;18.85;;;10.25;;
23670;SDS011;12012;51.998;7.614;2023-03-01T04:41:43;19.23;;;10.18;;
23670;SDS011;12012;51.998;7.614;2023-03-01T04:44:08;15.50;;;9.90;;
23670;SDS011;12012;51.998;7.614;2023-03-01T04:46:34;17.50;;;11.48;;
23670;SDS011;12012;51.998;7.614;2023-03-01T04:49:01;15.88;;;10.15;;
23670;SDS011;12012;51.998;7.614;2023-03-01T04:51:27;21.33;;;11.50;;
23670;SDS011;12012;51.998;7.614;2023-03-01T04:53:53;16.65;;;10.45;;
23670;SDS011;12012;51.998;7.614;2023-03-01T04:56:19;21.88;;;11.60;;
23670;SDS011;12012;51.998;7.614;2023-03-01T04:58:47;20.15;;;10.98;;
23670;SDS011;12012;51.998;7.614;2023-03-01T05:01:17;18.60;;;11.10;;
23670;SDS011;12012;51.998;7.614;2023-03-01T05:03:45;17.75;;;12.13;;
23670;SDS011;12012;51.998;7.614;2023-03-01T05:06:13;16.73;;;10.43;;
23670;SDS011;12012;51.998;7.614;2023-03-01T05:08:40;16.73;;;9.95;;
23670;SDS011;12012;51.998;7.614;2023-03-01T05:11:06;15.73;;;9.32;;
23670;SDS011;12012;51.998;7.614;2023-03-01T05:13:34;19.15;;;10.43;;
23670;SDS011;12012;51.998;7.614;2023-03-01T05:16:00;22.45;;;10.77;;
23670;SDS011;12012;51.998;7.614;2023-03-01T05:18:26;15.82;;;9.73;;
23670;SDS011;12012;51.998;7.614;2023-03-01T05:20:53;20.15;;;10.48;;
23670;SDS011;12012;51.998;7.614;2023-03-01T05:23:23;18.95;;;10.98;;
23670;SDS011;12012;51.998;7.614;2023-03-01T05:25:49;18.10;;;10.52;;
23670;SDS011;12012;51.998;7.614;2023-03-01T05:28:17;19.58;;;11.02;;
23670;SDS011;12012;51.998;7.614;2023-03-01T05:30:45;14.07;;;8.88;;
23670;SDS011;12012;51.998;7.614;2023-03-01T05:33:11;18.77;;;10.52;;
23670;SDS011;12012;51.998;7.614;2023-03-01T05:35:40;13.18;;;8.60;;
23670;SDS011;12012;51.998;7.614;2023-03-01T05:38:07;17.65;;;9.98;;
23670;SDS011;12012;51.998;7.614;2023-03-01T05:40:34;18.73;;;11.38;;
23670;SDS011;12012;51.998;7.614;2023-03-01T05:43:00;20.10;;;11.00;;
23670;SDS011;12012;51.998;7.614;2023-03-01T05:45:27;19.55;;;10.85;;
23670;SDS011;12012;51.998;7.614;2023-03-01T05:47:53;15.48;;;10.25;;
23670;SDS011;12012;51.998;7.614;2023-03-01T05:50:24;20.95;;;11.73;;
23670;SDS011;12012;51.998;7.614;2023-03-01T05:53:01;17.83;;;11.27;;
23670;SDS011;12012;51.998;7.614;2023-03-01T05:55:27;17.48;;;10.23;;
23670;SDS011;12012;51.998;7.614;2023-03-01T05:57:54;22.13;;;12.23;;
23670;SDS011;12012;51.998;7.614;2023-03-01T06:00:20;19.90;;;12.20;;
23670;SDS011;12012;51.998;7.614;2023-03-01T06:02:49;23.90;;;11.85;;
23670;SDS011;12012;51.998;7.614;2023-03-01T06:05:16;22.77;;;12.57;;
23670;SDS011;12012;51.998;7.614;2023-03-01T06:07:43;17.75;;;10.35;;
23670;SDS011;12012;51.998;7.614;2023-03-01T06:10:09;22.30;;;12.02;;
23670;SDS011;12012;51.998;7.614;2023-03-01T06:15:01;18.38;;;10.90;;
23670;SDS011;12012;51.998;7.614;2023-03-01T06:17:31;19.25;;;11.35;;
23670;SDS011;12012;51.998;7.614;2023-03-01T06:20:02;21.83;;;10.70;;
23670;SDS011;12012;51.998;7.614;2023-03-01T06:22:32;25.45;;;12.90;;
23670;SDS011;12012;51.998;7.614;2023-03-01T06:24:57;18.05;;;11.55;;
23670;SDS011;12012;51.998;7.614;2023-03-01T06:27:23;20.92;;;11.77;;
23670;SDS011;12012;51.998;7.614;2023-03-01T06:29:48;21.35;;;12.15;;
23670;SDS011;12012;51.998;7.614;2023-03-01T06:32:14;18.15;;;11.10;;
23670;SDS011;12012;51.998;7.614;2023-03-01T06:34:39;19.48;;;10.90;;
23670;SDS011;12012;51.998;7.614;2023-03-01T06:37:07;31.17;;;11.90;;
23670;SDS011;12012;51.998;7.614;2023-03-01T06:39:32;23.38;;;12.85;;
23670;SDS011;12012;51.998;7.614;2023-03-01T06:41:58;26.60;;;12.80;;
23670;SDS011;12012;51.998;7.614;2023-03-01T06:44:24;30.33;;;13.57;;
23670;SDS011;12012;51.998;7.614;2023-03-01T06:46:50;25.38;;;12.82;;
23670;SDS011;12012;51.998;7.614;2023-03-01T06:49:16;39.42;;;12.73;;
23670;SDS011;12012;51.998;7.614;2023-03-01T06:51:42;31.67;;;12.55;;
23670;SDS011;12012;51.998;7.614;2023-03-01T06:54:09;25.35;;;13.57;;
23670;SDS011;12012;51.998;7.614;2023-03-01T06:56:35;25.88;;;13.07;;
23670;SDS011;12012;51.998;7.614;2023-03-01T06:59:00;24.05;;;11.65;;
23670;SDS011;12012;51.998;7.614;2023-03-01T07:01:27;22.45;;;12.25;;
23670;SDS011;12012;51.998;7.614;2023-03-01T07:03:53;32.42;;;15.90;;
23670;SDS011;12012;51.998;7.614;2023-03-01T07:06:19;38.90;;;15.55;;
23670;SDS011;12012;51.998;7.614;2023-03-01T07:08:44;24.73;;;12.48;;
23670;SDS011;12012;51.998;7.614;2023-03-01T07:11:10;28.30;;;13.20;;
23670;SDS011;12012;51.998;7.614;2023-03-01T07:13:35;24.70;;;13.13;;
23670;SDS011;12012;51.998;7.614;2023-03-01T07:16:01;27.20;;;11.70;;
23670;SDS011;12012;51.998;7.614;2023-03-01T07:18:27;27.75;;;13.02;;
23670;SDS011;12012;51.998;7.614;2023-03-01T07:20:52;50.13;;;16.95;;
23670;SDS011;12012;51.998;7.614;2023-03-01T07:23:18;36.35;;;14.52;;
23670;SDS011;12012;51.998;7.614;2023-03-01T07:25:43;32.50;;;14.82;;
23670;SDS011;12012;51.998;7.614;2023-03-01T07:28:09;35.08;;;15.00;;
23670;SDS011;12012;51.998;7.614;2023-03-01T07:30:34;26.25;;;13.05;;
23670;SDS011;12012;51.998;7.614;2023-03-01T07:33:00;26.30;;;13.18;;
23670;SDS011;12012;51.998;7.614;2023-03-01T07:35:26;26.85;;;12.18;;
23670;SDS011;12012;51.998;7.614;2023-03-01T07:37:52;19.45;;;12.88;;
23670;SDS011;12012;51.998;7.614;2023-03-01T07:40:18;25.00;;;12.93;;
23670;SDS011;12012;51.998;7.614;2023-03-01T07:42:44;19.40;;;11.57;;
23670;SDS011;12012;51.998;7.614;2023-03-01T07:45:09;19.75;;;10.82;;
23670;SDS011;12012;51.998;7.614;2023-03-01T07:47:35;18.70;;;10.50;;
23670;SDS011;12012;51.998;7.614;2023-03-01T07:50:02;18.40;;;11.18;;
23670;SDS011;12012;51.998;7.614;2023-03-01T07:52:29;18.52;;;10.88;;
23670;SDS011;12012;51.998;7.614;2023-03-01T07:54:55;17.95;;;11.63;;
23670;SDS011;12012;51.998;7.614;2023-03-01T07:57:21;16.52;;;10.13;;
23670;SDS011;12012;51.998;7.614;2023-03-01T07:59:47;18.58;;;10.35;;
23670;SDS011;12012;51.998;7.614;2023-03-01T08:02:12;16.38;;;9.63;;
23670;SDS011;12012;51.998;7.614;2023-03-01T08:04:39;15.52;;;10.20;;
23670;SDS011;12012;51.998;7.614;2023-03-01T08:07:06;17.55;;;9.95;;
23670;SDS011;12012;51.998;7.614;2023-03-01T08:09:31;20.40;;;10.30;;
23670;SDS011;12012;51.998;7.614;2023-03-01T08:11:59;14.57;;;9.07;;
23670;SDS011;12012;51.998;7.614;2023-03-01T08:14:25;14.20;;;9.50;;
23670;SDS011;12012;51.998;7.614;2023-03-01T08:16:50;12.45;;;8.77;;
23670;SDS011;12012;51.998;7.614;2023-03-01T08:19:16;12.05;;;8.25;;
23670;SDS011;12012;51.998;7.614;2023-03-01T08:21:42;15.43;;;9.00;;
23670;SDS011;12012;51.998;7.614;2023-03-01T08:24:08;13.32;;;9.10;;
23670;SDS011;12012;51.998;7.614;2023-03-01T08:26:35;16.55;;;9.98;;
23670;SDS011;12012;51.998;7.614;2023-03-01T08:29:01;16.90;;;9.77;;
23670;SDS011;12012;51.998;7.614;2023-03-01T08:31:29;13.35;;;8.13;;
23670;SDS011;12012;51.998;7.614;2023-03-01T08:33:58;12.85;;;8.65;;
23670;SDS011;12012;51.998;7.614;2023-03-01T08:36:29;13.32;;;8.73;;
23670;SDS011;12012;51.998;7.614;2023-03-01T08:38:57;15.77;;;9.05;;
23670;SDS011;12012;51.998;7.614;2023-03-01T08:41:22;13.85;;;9.10;;
23670;SDS011;12012;51.998;7.614;2023-03-01T08:43:48;16.63;;;8.65;;
23670;SDS011;12012;51.998;7.614;2023-03-01T08:46:14;11.30;;;8.13;;
23670;SDS011;12012;51.998;7.614;2023-03-01T08:48:40;12.73;;;8.50;;
23670;SDS011;12012;51.998;7.614;2023-03-01T08:51:16;16.17;;;8.20;;
23670;SDS011;12012;51.998;7.614;2023-03-01T08:53:42;12.00;;;8.82;;
23670;SDS011;12012;51.998;7.614;2023-03-01T08:56:09;15.68;;;8.77;;
23670;SDS011;12012;51.998;7.614;2023-03-01T08:58:35;11.52;;;8.48;;
23670;SDS011;12012;51.998;7.614;2023-03-01T09:01:06;15.60;;;9.98;;
23670;SDS011;12012;51.998;7.614;2023-03-01T09:03:32;12.00;;;8.50;;
23670;SDS011;12012;51.998;7.614;2023-03-01T09:06:02;11.75;;;9.07;;
23670;SDS011;12012;51.998;7.614;2023-03-01T09:08:29;14.85;;;9.88;;
23670;SDS011;12012;51.998;7.614;2023-03-01T09:10:54;14.30;;;9.55;;
23670;SDS011;12012;51.998;7.614;2023-03-01T09:13:20;16.67;;;9.27;;
23670;SDS011;12012;51.998;7.614;2023-03-01T09:15:49;15.05;;;10.27;;
23670;SDS011;12012;51.998;7.614;2023-03-01T09:18:15;13.70;;;9.07;;
23670;SDS011;12012;51.998;7.614;2023-03-01T09:20:41;11.27;;;8.80;;
23670;SDS011;12012;51.998;7.614;2023-03-01T09:23:06;12.70;;;8.73;;
23670;SDS011;12012;51.998;7.614;2023-03-01T09:25:33;14.18;;;9.65;;
23670;SDS011;12012;51.998;7.614;2023-03-01T09:27:59;11.32;;;8.88;;
23670;SDS011;12012;51.998;7.614;2023-03-01T09:30:25;13.13;;;8.90;;
23670;SDS011;12012;51.998;7.614;2023-03-01T09:32:51;13.57;;;8.50;;
23670;SDS011;12012;51.998;7.614;2023-03-01T09:35:17;13.18;;;9.07;;
23670;SDS011;12012;51.998;7.614;2023-03-01T09:37:44;12.38;;;8.63;;
23670;SDS011;12012;51.998;7.614;2023-03-01T09:40:17;12.75;;;8.43;;
23670;SDS011;12012;51.998;7.614;2023-03-01T09:42:52;11.70;;;9.00;;
23670;SDS011;12012;51.998;7.614;2023-03-01T09:45:23;14.00;;;9.27;;
23670;SDS011;12012;51.998;7.614;2023-03-01T09:47:54;13.23;;;9.25;;
23670;SDS011;12012;51.998;7.614;2023-03-01T09:50:21;12.50;;;9.20;;
23670;SDS011;12012;51.998;7.614;2023-03-01T09:52:53;12.55;;;8.93;;
23670;SDS011;12012;51.998;7.614;2023-03-01T09:58:00;11.73;;;8.45;;
23670;SDS011;12012;51.998;7.614;2023-03-01T10:00:47;14.40;;;8.75;;
23670;SDS011;12012;51.998;7.614;2023-03-01T10:03:22;13.18;;;9.13;;
23670;SDS011;12012;51.998;7.614;2023-03-01T10:05:59;12.15;;;8.25;;
23670;SDS011;12012;51.998;7.614;2023-03-01T10:08:31;12.13;;;8.75;;
23670;SDS011;12012;51.998;7.614;2023-03-01T10:11:01;11.53;;;8.00;;
23670;SDS011;12012;51.998;7.614;2023-03-01T10:13:42;13.43;;;9.00;;
23670;SDS011;12012;51.998;7.614;2023-03-01T10:16:15;11.68;;;8.45;;
23670;SDS011;12012;51.998;7.614;2023-03-01T10:18:46;12.35;;;8.75;;
23670;SDS011;12012;51.998;7.614;2023-03-01T10:21:17;12.82;;;9.32;;
23670;SDS011;12012;51.998;7.614;2023-03-01T10:23:45;12.18;;;9.32;;
23670;SDS011;12012;51.998;7.614;2023-03-01T10:31:18;11.10;;;8.05;;
23670;SDS011;12012;51.998;7.614;2023-03-01T10:33:48;12.30;;;8.80;;
23670;SDS011;12012;51.998;7.614;2023-03-01T10:36:16;12.27;;;9.20;;
23670;SDS011;12012;51.998;7.614;2023-03-01T10:41:23;12.15;;;8.93;;
23670;SDS011;12012;51.998;7.614;2023-03-01T10:43:51;12.13;;;9.38;;
23670;SDS011;12012;51.998;7.614;2023-03-01T10:46:22;12.02;;;7.93;;
23670;SDS011;12012;51.998;7.614;2023-03-01T10:51:45;9.60;;;7.63;;
23670;SDS011;12012;51.998;7.614;2023-03-01T10:56:58;11.00;;;8.00;;
23670;SDS011;12012;51.998;7.614;2023-03-01T10:59:29;10.93;;;8.50;;
23670;SDS011;12012;51.998;7.614;2023-03-01T11:07:25;11.60;;;8.40;;
23670;SDS011;12012;51.998;7.614;2023-03-01T11:09:51;11.68;;;8.38;;
23670;SDS011;12012;51.998;7.614;2023-03-01T11:12:17;10.07;;;7.70;;
23670;SDS011;12012;51.998;7.614;2023-03-01T11:14:47;12.40;;;8.90;;
23670;SDS011;12012;51.998;7.614;2023-03-01T11:19:52;12.48;;;9.05;;
23670;SDS011;12012;51.998;7.614;2023-03-01T11:23:25;9.15;;;7.25;;
23670;SDS011;12012;51.998;7.614;2023-03-01T11:25:30;9.75;;;8.25;;
23670;SDS011;12012;51.998;7.614;2023-03-01T11:28:00;9.98;;;7.93;;
23670;SDS011;12012;51.998;7.614;2023-03-01T11:33:08;10.30;;;7.85;;
23670;SDS011;12012;51.998;7.614;2023-03-01T11:35:47;8.20;;;7.38;;
23670;SDS011;12012;51.998;7.614;2023-03-01T11:38:34;7.75;;;6.93;;
23670;SDS011;12012;51.998;7.614;2023-03-01T11:41:05;8.63;;;7.05;;
23670;SDS011;12012;51.998;7.614;2023-03-01T11:56:45;8.25;;;6.47;;
23670;SDS011;12012;51.998;7.614;2023-03-01T12:12:54;6.85;;;5.20;;
23670;SDS011;12012;51.998;7.614;2023-03-01T12:15:37;7.20;;;6.03;;
23670;SDS011;12012;51.998;7.614;2023-03-01T12:21:18;8.48;;;6.80;;
23670;SDS011;12012;51.998;7.614;2023-03-01T12:27:14;6.32;;;5.72;;
23670;SDS011;12012;51.998;7.614;2023-03-01T12:40:52;5.45;;;4.95;;
23670;SDS011;12012;51.998;7.614;2023-03-01T12:46:10;5.50;;;4.57;;
23670;SDS011;12012;51.998;7.614;2023-03-01T12:49:08;5.28;;;4.80;;
23670;SDS011;12012;51.998;7.614;2023-03-01T12:51:50;5.78;;;4.68;;
23670;SDS011;12012;51.998;7.614;2023-03-01T12:54:24;5.43;;;4.93;;
23670;SDS011;12012;51.998;7.614;2023-03-01T12:57:01;5.25;;;4.75;;
23670;SDS011;12012;51.998;7.614;2023-03-01T12:59:35;5.50;;;5.00;;
23670;SDS011;12012;51.998;7.614;2023-03-01T13:02:34;7.15;;;5.75;;
23670;SDS011;12012;51.998;7.614;2023-03-01T13:10:56;5.00;;;4.55;;
23670;SDS011;12012;51.998;7.614;2023-03-01T13:13:26;5.82;;;4.68;;
23670;SDS011;12012;51.998;7.614;2023-03-01T13:15:53;6.65;;;5.00;;
23670;SDS011;12012;51.998;7.614;2023-03-01T13:20:48;6.80;;;5.20;;
23670;SDS011;12012;51.998;7.614;2023-03-01T13:33:51;6.95;;;5.10;;
23670;SDS011;12012;51.998;7.614;2023-03-01T13:44:13;6.57;;;5.22;;
23670;SDS011;12012;51.998;7.614;2023-03-01T13:46:43;6.85;;;5.15;;
23670;SDS011;12012;51.998;7.614;2023-03-01T13:49:11;5.80;;;5.18;;
23670;SDS011;12012;51.998;7.614;2023-03-01T13:51:41;7.00;;;5.65;;
23670;SDS011;12012;51.998;7.614;2023-03-01T13:54:11;6.57;;;5.82;;
23670;SDS011;12012;51.998;7.614;2023-03-01T13:56:38;6.30;;;5.32;;
23670;SDS011;12012;51.998;7.614;2023-03-01T13:59:05;7.15;;;5.78;;
23670;SDS011;12012;51.998;7.614;2023-03-01T14:01:39;8.32;;;5.68;;
23670;SDS011;12012;51.998;7.614;2023-03-01T14:04:21;6.43;;;5.75;;
23670;SDS011;12012;51.998;7.614;2023-03-01T14:06:50;6.55;;;5.93;;
23670;SDS011;12012;51.998;7.614;2023-03-01T14:09:17;6.22;;;5.63;;
23670;SDS011;12012;51.998;7.614;2023-03-01T14:14:30;7.50;;;5.72;;
23670;SDS011;12012;51.998;7.614;2023-03-01T14:19:47;6.47;;;5.18;;
23670;SDS011;12012;51.998;7.614;2023-03-01T14:22:22;6.10;;;5.30;;
23670;SDS011;12012;51.998;7.614;2023-03-01T14:24:50;6.07;;;4.95;;
23670;SDS011;12012;51.998;7.614;2023-03-01T14:27:20;5.30;;;4.80;;
23670;SDS011;12012;51.998;7.614;2023-03-01T14:29:55;4.82;;;4.32;;
23670;SDS011;12012;51.998;7.614;2023-03-01T14:32:24;5.65;;;4.63;;
23670;SDS011;12012;51.998;7.614;2023-03-01T14:34:52;6.75;;;4.82;;
23670;SDS011;12012;51.998;7.614;2023-03-01T14:37:28;5.47;;;4.90;;
23670;SDS011;12012;51.998;7.614;2023-03-01T14:39:56;5.88;;;5.25;;
23670;SDS011;12012;51.998;7.614;2023-03-01T14:42:23;5.35;;;4.80;;
23670;SDS011;12012;51.998;7.614;2023-03-01T14:44:52;6.03;;;5.38;;
23670;SDS011;12012;51.998;7.614;2023-03-01T14:50:00;5.53;;;4.97;;
23670;SDS011;12012;51.998;7.614;2023-03-01T14:52:40;6.38;;;5.40;;
23670;SDS011;12012;51.998;7.614;2023-03-01T14:55:18;6.72;;;5.05;;
23670;SDS011;12012;51.998;7.614;2023-03-01T14:57:52;5.28;;;4.70;;
23670;SDS011;12012;51.998;7.614;2023-03-01T15:00:22;6.28;;;5.00;;
23670;SDS011;12012;51.998;7.614;2023-03-01T15:02:56;6.60;;;4.75;;
23670;SDS011;12012;51.998;7.614;2023-03-01T15:05:29;8.05;;;5.10;;
23670;SDS011;12012;51.998;7.614;2023-03-01T15:07:59;6.50;;;5.38;;
23670;SDS011;12012;51.998;7.614;2023-03-01T15:10:28;7.72;;;5.90;;
23670;SDS011;12012;51.998;7.614;2023-03-01T15:13:13;8.40;;;5.38;;
23670;SDS011;12012;51.998;7.614;2023-03-01T15:15:48;6.68;;;4.72;;
23670;SDS011;12012;51.998;7.614;2023-03-01T15:18:51;8.73;;;5.72;;
23670;SDS011;12012;51.998;7.614;2023-03-01T15:21:14;7.63;;;5.03;;
23670;SDS011;12012;51.998;7.614;2023-03-01T15:23:47;8.65;;;5.53;;
23670;SDS011;12012;51.998;7.614;2023-03-01T15:26:40;7.90;;;5.20;;
23670;SDS011;12012;51.998;7.614;2023-03-01T15:29:13;8.55;;;5.40;;
23670;SDS011;12012;51.998;7.614;2023-03-01T15:31:53;7.30;;;5.13;;
23670;SDS011;12012;51.998;7.614;2023-03-01T15:34:35;11.25;;;5.95;;
23670;SDS011;12012;51.998;7.614;2023-03-01T15:37:03;6.60;;;4.85;;
23670;SDS011;12012;51.998;7.614;2023-03-01T15:42:08;7.97;;;4.72;;
23670;SDS011;12012;51.998;7.614;2023-03-01T15:44:36;9.15;;;5.28;;
23670;SDS011;12012;51.998;7.614;2023-03-01T15:47:20;10.43;;;5.38;;
23670;SDS011;12012;51.998;7.614;2023-03-01T15:49:57;8.48;;;5.63;;
23670;SDS011;12012;51.998;7.614;2023-03-01T15:54:59;7.88;;;5.13;;
23670;SDS011;12012;51.998;7.614;2023-03-01T15:59:52;8.10;;;5.15;;
23670;SDS011;12012;51.998;7.614;2023-03-01T16:02:18;7.95;;;5.22;;
23670;SDS011;12012;51.998;7.614;2023-03-01T16:04:46;6.65;;;4.88;;
23670;SDS011;12012;51.998;7.614;2023-03-01T16:07:13;7.03;;;4.47;;
23670;SDS011;12012;51.998;7.614;2023-03-01T16:09:39;6.70;;;4.85;;
23670;SDS011;12012;51.998;7.614;2023-03-01T16:12:05;6.95;;;4.40;;
23670;SDS011;12012;51.998;7.614;2023-03-01T16:14:33;7.53;;;5.28;;
23670;SDS011;12012;51.998;7.614;2023-03-01T16:16:59;8.07;;;5.10;;
23670;SDS011;12012;51.998;7.614;2023-03-01T16:19:24;8.80;;;5.13;;
23670;SDS011;12012;51.998;7.614;2023-03-01T16:21:50;8.27;;;4.78;;
23670;SDS011;12012;51.998;7.614;2023-03-01T16:24:15;7.28;;;4.72;;
23670;SDS011;12012;51.998;7.614;2023-03-01T16:26:42;7.28;;;4.53;;
23670;SDS011;12012;51.998;7.614;2023-03-01T16:29:07;8.77;;;4.78;;
23670;SDS011;12012;51.998;7.614;2023-03-01T16:31:33;7.20;;;4.88;;
23670;SDS011;12012;51.998;7.614;2023-03-01T16:33:58;8.18;;;4.78;;
23670;SDS011;12012;51.998;7.614;2023-03-01T16:36:25;8.10;;;5.40;;
23670;SDS011;12012;51.998;7.614;2023-03-01T16:38:53;8.88;;;5.38;;
23670;SDS011;12012;51.998;7.614;2023-03-01T16:41:20;12.32;;;7.07;;
23670;SDS011;12012;51.998;7.614;2023-03-01T16:43:48;13.55;;;6.90;;
23670;SDS011;12012;51.998;7.614;2023-03-01T16:46:15;12.75;;;6.22;;
23670;SDS011;12012;51.998;7.614;2023-03-01T16:48:46;8.00;;;5.35;;